This is the latest recevied weather packets stored in our database for station/object KE5WTH-14. If no packets are shown the sender has not sent any weather packets the latest 1 day(s).
| Time | Temp. | Humidity | Pressure | Rain* | Wind** | Luminosity | Snow |
|---|---|---|---|---|---|---|---|
| 1778076814 | 12.22° C | 84% | 1014.3 hPa | 0 mm | - | 77 W/m² | - |
| 1778076755 | 12.22° C | 84% | 1014.2 hPa | 0 mm | - | 84 W/m² | - |
| 1778076693 | 12.22° C | 84% | 1014.2 hPa | 0 mm | - | 98 W/m² | - |
| 1778076454 | 12.22° C | 84% | 1014.1 hPa | 0 mm | - | 125 W/m² | - |
| 1778076136 | 11.67° C | 85% | 1014.2 hPa | 0 mm | - | 86 W/m² | - |
| 1778075893 | 11.67° C | 85% | 1014.1 hPa | 0 mm | - | 70 W/m² | - |
| 1778075651 | 11.67° C | 85% | 1013.9 hPa | 0 mm | - | 100 W/m² | - |
| 1778075592 | 11.67° C | 85% | 1013.9 hPa | 0 mm | - | 107 W/m² | - |
| 1778075466 | 11.67° C | 85% | 1013.8 hPa | 0 mm | - | 109 W/m² | - |
| 1778075409 | 11.67° C | 85% | 1013.8 hPa | 0 mm | - | 111 W/m² | - |
| 1778075341 | 11.67° C | 86% | 1013.9 hPa | 0 mm | - | 102 W/m² | - |
| 1778075219 | 11.67° C | 86% | 1014 hPa | 0 mm | - | 88 W/m² | - |
| 1778075158 | 11.67° C | 86% | 1014 hPa | 0 mm | - | 74 W/m² | - |
| 1778075095 | 11.67° C | 86% | 1014.1 hPa | 0 mm | - | 67 W/m² | - |
| 1778075034 | 11.67° C | 86% | 1014.1 hPa | 0 mm | - | 63 W/m² | - |
| 1778074906 | 11.67° C | 86% | 1014.1 hPa | 0 mm | - | 63 W/m² | - |
| 1778074844 | 11.67° C | 86% | 1014.1 hPa | 0 mm | - | 74 W/m² | - |
| 1778074597 | 11.67° C | 87% | 1014 hPa | 0 mm | - | 70 W/m² | - |
| 1778074535 | 11.67° C | 87% | 1014 hPa | 0 mm | - | 69 W/m² | - |
| 1778074472 | 11.67° C | 87% | 1013.9 hPa | 0 mm | - | 67 W/m² | - |
| 1778074414 | 11.67° C | 87% | 1013.9 hPa | 0 mm | - | 65 W/m² | - |
| 1778074113 | 11.11° C | 87% | 1013.7 hPa | 0 mm | - | 79 W/m² | - |
| 1778074053 | 11.11° C | 87% | 1013.7 hPa | 0 mm | - | 77 W/m² | - |
| 1778073933 | 11.11° C | 87% | 1013.7 hPa | 0 mm | - | 76 W/m² | - |
| 1778073754 | 11.11° C | 87% | 1013.7 hPa | 0 mm | - | 65 W/m² | - |
* Rain latest hour (hover to see other rain measurements)
** Current wind speed in m/s (hover to see current wind gust speed)